Time;durP1;ratioP1;P1;durP2;ratioP2;P2;SDS_P1;SDS_P2;PMS_P1;PMS_P2;Temp;Humidity;BMP_temperature;BMP_pressure;BME280_temperature;BME280_humidity;BME280_pressure;Samples;Min_cycle;Max_cycle;Signal;HPM_P1;HPM_P2
2022/11/10 00:01:16;;;;;;;19.38;17.35;;;;;;;;;;6250342;28;20061;-68
2022/11/10 00:04:18;;;;;;;17.77;15.98;;;;;;;;;;6252779;28;20309;-68
2022/11/10 00:07:24;;;;;;;18.20;16.30;;;;;;;;;;6249057;28;20072;-68
2022/11/10 00:10:26;;;;;;;19.05;16.45;;;;;;;;;;6252474;28;20072;-68
2022/11/10 00:13:29;;;;;;;18.98;15.98;;;;;;;;;;6252946;28;20398;-67
2022/11/10 00:19:50;;;;;;;16.17;14.50;;;;;;;;;;6252572;28;20229;-68
2022/11/10 00:22:54;;;;;;;16.98;15.27;;;;;;;;;;6254476;28;20045;-66
2022/11/10 00:25:56;;;;;;;16.23;14.52;;;;;;;;;;6251731;28;20095;-67
2022/11/10 00:28:58;;;;;;;16.65;14.68;;;;;;;;;;6251208;28;20061;-67
2022/11/10 00:31:59;;;;;;;16.05;13.43;;;;;;;;;;6250853;28;20096;-67
2022/11/10 00:35:01;;;;;;;15.38;13.77;;;;;;;;;;6248935;28;20372;-68
2022/11/10 00:38:04;;;;;;;14.65;13.15;;;;;;;;;;6248945;28;20054;-67
2022/11/10 00:41:05;;;;;;;14.02;12.63;;;;;;;;;;6250152;28;20041;-67
2022/11/10 00:44:07;;;;;;;15.38;13.77;;;;;;;;;;6250979;28;20103;-67
2022/11/10 00:47:09;;;;;;;14.05;12.65;;;;;;;;;;6254021;28;20045;-68
2022/11/10 00:50:10;;;;;;;13.90;12.60;;;;;;;;;;6251793;28;20225;-68
2022/11/10 00:53:14;;;;;;;14.13;12.68;;;;;;;;;;6246939;28;20057;-65
2022/11/10 00:56:15;;;;;;;14.13;12.57;;;;;;;;;;6233415;28;20465;-67
2022/11/10 00:59:17;;;;;;;13.68;12.27;;;;;;;;;;6226917;28;20053;-65
2022/11/10 01:02:18;;;;;;;12.25;11.05;;;;;;;;;;6234538;28;20091;-66
2022/11/10 01:05:21;;;;;;;12.52;11.32;;;;;;;;;;6226048;28;20276;-64
2022/11/10 01:08:24;;;;;;;12.95;11.65;;;;;;;;;;6231300;28;20065;-68
2022/11/10 01:11:28;;;;;;;12.73;11.30;;;;;;;;;;6230698;28;20797;-66
2022/11/10 01:14:29;;;;;;;11.23;10.13;;;;;;;;;;6230947;28;20061;-66
2022/11/10 01:17:31;;;;;;;11.25;10.18;;;;;;;;;;6232172;28;20174;-69
2022/11/10 01:20:33;;;;;;;11.95;10.70;;;;;;;;;;6227385;28;20057;-68
2022/11/10 01:23:36;;;;;;;12.35;11.15;;;;;;;;;;6231873;28;20053;-68
2022/11/10 01:26:38;;;;;;;11.70;10.57;;;;;;;;;;6232391;28;20354;-69
2022/11/10 01:29:40;;;;;;;12.55;11.27;;;;;;;;;;6231407;28;20321;-65
2022/11/10 01:32:41;;;;;;;14.45;11.77;;;;;;;;;;6229774;28;20057;-68
2022/11/10 01:35:43;;;;;;;13.25;11.80;;;;;;;;;;6226025;28;20233;-69
2022/11/10 01:38:46;;;;;;;12.80;11.50;;;;;;;;;;6230103;28;20061;-68
2022/11/10 01:41:48;;;;;;;12.77;11.48;;;;;;;;;;6229706;28;20053;-68
2022/11/10 01:45:23;;;;;;;13.68;12.15;;;;;;;;;;6225832;28;20108;-65
2022/11/10 01:48:30;;;;;;;13.63;12.23;;;;;;;;;;6233875;28;20054;-68
2022/11/10 01:51:36;;;;;;;13.52;12.00;;;;;;;;;;6241153;28;20126;-67
2022/11/10 01:54:41;;;;;;;13.05;11.75;;;;;;;;;;6232811;28;20053;-69
2022/11/10 01:57:43;;;;;;;12.80;11.50;;;;;;;;;;6236912;28;20099;-69
2022/11/10 02:00:44;;;;;;;12.73;11.43;;;;;;;;;;6232801;28;20052;-69
2022/11/10 02:03:49;;;;;;;12.80;11.50;;;;;;;;;;6234679;28;20052;-65
2022/11/10 02:06:51;;;;;;;13.25;11.95;;;;;;;;;;6238954;28;20230;-69
2022/11/10 02:09:54;;;;;;;13.77;12.38;;;;;;;;;;6235307;28;20343;-68
2022/11/10 02:12:55;;;;;;;14.48;12.38;;;;;;;;;;6236459;28;20052;-65
2022/11/10 02:15:57;;;;;;;14.90;12.95;;;;;;;;;;6233203;28;20061;-69
2022/11/10 02:19:11;;;;;;;14.18;12.65;;;;;;;;;;6237601;28;20064;-68
2022/11/10 02:22:14;;;;;;;14.50;12.60;;;;;;;;;;6238838;28;20249;-68
2022/11/10 02:25:19;;;;;;;14.20;12.68;;;;;;;;;;6233507;28;20145;-69
2022/11/10 02:28:20;;;;;;;15.05;13.38;;;;;;;;;;6239736;28;20066;-68
2022/11/10 02:31:22;;;;;;;14.32;12.82;;;;;;;;;;6235898;28;20103;-68
2022/11/10 02:34:24;;;;;;;16.05;14.18;;;;;;;;;;6235966;28;20057;-68
2022/11/10 02:37:27;;;;;;;14.68;13.07;;;;;;;;;;6231645;28;20052;-68
2022/11/10 02:40:28;;;;;;;15.35;12.63;;;;;;;;;;6239281;28;20041;-67
2022/11/10 02:43:30;;;;;;;15.88;13.55;;;;;;;;;;6235264;28;20048;-69
2022/11/10 02:46:32;;;;;;;14.20;12.57;;;;;;;;;;6234141;28;20053;-69
2022/11/10 02:49:34;;;;;;;14.73;12.65;;;;;;;;;;6233872;28;20089;-69
2022/11/10 02:52:37;;;;;;;14.40;12.80;;;;;;;;;;6233492;28;20081;-68
2022/11/10 02:55:38;;;;;;;13.33;11.83;;;;;;;;;;6238373;28;20074;-69
2022/11/10 02:58:40;;;;;;;13.48;11.82;;;;;;;;;;6234323;28;20532;-68
2022/11/10 03:01:42;;;;;;;13.23;11.82;;;;;;;;;;6228697;28;20053;-68
2022/11/10 03:04:43;;;;;;;13.65;11.48;;;;;;;;;;6233835;28;20284;-69
2022/11/10 03:07:52;;;;;;;13.25;11.85;;;;;;;;;;6230138;28;20065;-69
2022/11/10 03:10:54;;;;;;;13.27;11.77;;;;;;;;;;6234432;28;20577;-68
2022/11/10 03:13:56;;;;;;;13.90;12.15;;;;;;;;;;6235272;28;20327;-65
2022/11/10 03:16:58;;;;;;;14.00;12.32;;;;;;;;;;6234695;28;20057;-67
2022/11/10 03:19:59;;;;;;;15.32;12.45;;;;;;;;;;6230552;28;20105;-69
2022/11/10 03:23:04;;;;;;;15.07;12.50;;;;;;;;;;6231691;28;20049;-69
2022/11/10 03:26:06;;;;;;;14.35;12.07;;;;;;;;;;6234309;28;20053;-69
2022/11/10 03:29:08;;;;;;;15.15;12.45;;;;;;;;;;6232614;28;20107;-68
2022/11/10 03:32:10;;;;;;;12.48;11.07;;;;;;;;;;6234992;28;20053;-68
2022/11/10 03:35:11;;;;;;;14.10;12.07;;;;;;;;;;6231653;28;20049;-68
2022/11/10 03:38:14;;;;;;;14.65;11.63;;;;;;;;;;6234041;28;20236;-69
2022/11/10 03:41:16;;;;;;;14.13;11.85;;;;;;;;;;6232011;28;20274;-67
2022/11/10 03:44:17;;;;;;;13.90;12.15;;;;;;;;;;6231227;28;20118;-68
2022/11/10 03:47:19;;;;;;;15.90;13.40;;;;;;;;;;6235163;28;20061;-66
2022/11/10 03:50:21;;;;;;;16.05;13.68;;;;;;;;;;6229602;28;20060;-66
2022/11/10 03:53:24;;;;;;;18.15;13.68;;;;;;;;;;6236189;28;20329;-69
2022/11/10 03:56:26;;;;;;;16.63;13.67;;;;;;;;;;6231629;28;20355;-69
2022/11/10 03:59:28;;;;;;;18.15;14.90;;;;;;;;;;6228940;28;20117;-69
2022/11/10 04:02:30;;;;;;;19.00;15.90;;;;;;;;;;6234197;28;20095;-69
2022/11/10 04:09:01;;;;;;;18.88;16.08;;;;;;;;;;6229469;28;20045;-69
2022/11/10 04:18:41;;;;;;;21.23;17.35;;;;;;;;;;6229488;28;20053;-68
2022/11/10 04:21:42;;;;;;;24.60;18.77;;;;;;;;;;6232190;28;20053;-68
2022/11/10 04:24:45;;;;;;;26.27;19.42;;;;;;;;;;6230924;28;20054;-68
2022/11/10 04:27:47;;;;;;;31.35;21.58;;;;;;;;;;6233855;28;20037;-68
2022/11/10 04:30:49;;;;;;;29.52;21.98;;;;;;;;;;6231364;28;20678;-68
2022/11/10 04:33:51;;;;;;;30.17;22.13;;;;;;;;;;6229750;28;20049;-67
2022/11/10 04:36:52;;;;;;;30.95;22.27;;;;;;;;;;6230831;28;20053;-68
2022/11/10 04:39:55;;;;;;;27.73;21.25;;;;;;;;;;6230627;28;20057;-67
2022/11/10 04:42:57;;;;;;;26.40;20.10;;;;;;;;;;6232123;28;20061;-67
2022/11/10 04:45:59;;;;;;;29.77;21.65;;;;;;;;;;6231582;28;20056;-68
2022/11/10 04:49:02;;;;;;;29.83;20.98;;;;;;;;;;6232574;28;20048;-68
2022/11/10 04:52:04;;;;;;;28.48;20.98;;;;;;;;;;6234981;28;20656;-65
2022/11/10 04:55:08;;;;;;;29.17;20.92;;;;;;;;;;6231046;28;20053;-68
2022/11/10 04:58:10;;;;;;;27.23;20.98;;;;;;;;;;6229662;28;20107;-65
2022/11/10 05:01:12;;;;;;;25.95;19.85;;;;;;;;;;6231530;28;20072;-68
2022/11/10 05:04:14;;;;;;;25.38;19.73;;;;;;;;;;6234170;28;20200;-68
2022/11/10 05:07:15;;;;;;;24.58;19.30;;;;;;;;;;6234998;28;20057;-68
2022/11/10 05:10:19;;;;;;;26.25;20.25;;;;;;;;;;6234283;28;20041;-66
2022/11/10 05:13:20;;;;;;;26.63;19.10;;;;;;;;;;6230271;28;20076;-68
2022/11/10 05:16:22;;;;;;;25.15;19.40;;;;;;;;;;6230009;28;20107;-66
2022/11/10 05:19:24;;;;;;;26.25;19.17;;;;;;;;;;6230582;28;20401;-67
2022/11/10 05:22:26;;;;;;;23.92;18.48;;;;;;;;;;6238105;28;20210;-65
2022/11/10 05:25:29;;;;;;;24.85;19.33;;;;;;;;;;6234353;28;20068;-68
2022/11/10 05:28:30;;;;;;;22.35;18.33;;;;;;;;;;6234529;28;20054;-67
2022/11/10 05:31:32;;;;;;;20.83;17.00;;;;;;;;;;6234515;28;20041;-66
2022/11/10 05:34:34;;;;;;;18.58;15.20;;;;;;;;;;6236937;28;20057;-67
2022/11/10 05:37:39;;;;;;;18.02;15.45;;;;;;;;;;6233214;28;20056;-65
2022/11/10 05:40:42;;;;;;;20.70;16.55;;;;;;;;;;6229104;28;20244;-67
2022/11/10 05:43:44;;;;;;;20.63;16.67;;;;;;;;;;6237549;28;20258;-70
2022/11/10 05:46:45;;;;;;;23.13;18.40;;;;;;;;;;6232252;28;20099;-68
2022/11/10 05:49:47;;;;;;;21.63;18.30;;;;;;;;;;6237078;28;20135;-68
2022/11/10 05:52:50;;;;;;;24.70;18.67;;;;;;;;;;6232904;28;20141;-68
2022/11/10 05:55:53;;;;;;;25.73;20.67;;;;;;;;;;6235336;28;20053;-68
2022/11/10 05:58:55;;;;;;;27.13;21.70;;;;;;;;;;6234885;28;20143;-67
2022/11/10 06:01:57;;;;;;;30.90;23.20;;;;;;;;;;6234823;28;20214;-65
2022/11/10 06:04:58;;;;;;;36.33;25.35;;;;;;;;;;6231481;28;20057;-65
2022/11/10 06:08:00;;;;;;;37.28;26.98;;;;;;;;;;6230400;28;20395;-68
2022/11/10 06:11:04;;;;;;;40.05;27.23;;;;;;;;;;6233169;28;20061;-66
2022/11/10 06:14:06;;;;;;;38.33;26.77;;;;;;;;;;6237124;28;20144;-68
2022/11/10 06:17:08;;;;;;;42.60;26.10;;;;;;;;;;6237641;28;20053;-64
2022/11/10 06:20:11;;;;;;;42.95;27.13;;;;;;;;;;6238477;28;20053;-66
2022/11/10 06:26:24;;;;;;;41.95;27.30;;;;;;;;;;6625330;22;20259;-69
2022/11/10 06:29:26;;;;;;;41.35;27.55;;;;;;;;;;6266601;28;20061;-69
2022/11/10 06:32:28;;;;;;;39.67;26.95;;;;;;;;;;6268683;28;20052;-66
2022/11/10 06:35:30;;;;;;;44.20;28.45;;;;;;;;;;6258694;28;20858;-66
2022/11/10 06:38:31;;;;;;;40.38;26.17;;;;;;;;;;6265484;28;20053;-67
2022/11/10 06:41:34;;;;;;;41.25;26.35;;;;;;;;;;6268171;28;20057;-68
2022/11/10 06:44:36;;;;;;;40.58;27.92;;;;;;;;;;6265065;28;20057;-66
2022/11/10 06:47:37;;;;;;;41.00;26.42;;;;;;;;;;6269322;28;20053;-67
2022/11/10 06:50:39;;;;;;;39.63;27.77;;;;;;;;;;6265971;28;20057;-65
2022/11/10 06:53:41;;;;;;;39.97;27.15;;;;;;;;;;6269379;28;20041;-67
2022/11/10 06:56:44;;;;;;;42.47;27.15;;;;;;;;;;6270631;28;20049;-69
2022/11/10 06:59:46;;;;;;;43.33;28.75;;;;;;;;;;6269061;28;20091;-67
2022/11/10 07:02:48;;;;;;;39.25;26.75;;;;;;;;;;6270817;28;20394;-68
2022/11/10 07:05:49;;;;;;;40.90;27.10;;;;;;;;;;6272571;28;20329;-68
2022/11/10 07:08:51;;;;;;;43.65;29.17;;;;;;;;;;6270502;28;20045;-67
2022/11/10 07:11:54;;;;;;;40.10;28.15;;;;;;;;;;6269152;28;20107;-68
2022/11/10 07:14:55;;;;;;;39.55;28.35;;;;;;;;;;6268775;28;20080;-68
2022/11/10 07:17:57;;;;;;;41.10;27.38;;;;;;;;;;6266720;28;20275;-67
2022/11/10 07:20:58;;;;;;;39.50;27.98;;;;;;;;;;6270857;28;20064;-68
2022/11/10 07:24:00;;;;;;;45.03;28.27;;;;;;;;;;6269344;28;20265;-68
2022/11/10 07:27:03;;;;;;;41.28;28.45;;;;;;;;;;6239782;28;20065;-68
2022/11/10 07:30:06;;;;;;;37.67;27.10;;;;;;;;;;6242076;28;20316;-67
2022/11/10 07:33:11;;;;;;;39.15;26.65;;;;;;;;;;6240057;28;20139;-65
2022/11/10 07:36:12;;;;;;;39.88;25.58;;;;;;;;;;6242648;28;20057;-67
2022/11/10 07:39:14;;;;;;;37.95;26.50;;;;;;;;;;6241062;28;20100;-67
2022/11/10 07:42:17;;;;;;;38.92;25.95;;;;;;;;;;6242723;28;20057;-68
2022/11/10 07:45:18;;;;;;;37.53;25.73;;;;;;;;;;6239572;28;20061;-65
2022/11/10 07:48:20;;;;;;;35.85;26.20;;;;;;;;;;6245394;28;20045;-67
2022/11/10 07:51:22;;;;;;;41.42;26.92;;;;;;;;;;6241873;28;20348;-67
2022/11/10 07:54:23;;;;;;;38.13;26.50;;;;;;;;;;6241350;28;20049;-68
2022/11/10 07:57:26;;;;;;;38.50;26.70;;;;;;;;;;6239099;28;20101;-68
2022/11/10 08:00:28;;;;;;;33.90;25.03;;;;;;;;;;6241974;28;20049;-67
2022/11/10 08:03:30;;;;;;;38.45;26.58;;;;;;;;;;6244037;28;20136;-67
2022/11/10 08:06:32;;;;;;;36.35;25.98;;;;;;;;;;6236828;28;20136;-68
2022/11/10 08:09:33;;;;;;;38.50;26.42;;;;;;;;;;6242378;28;20062;-68
2022/11/10 08:12:36;;;;;;;37.97;25.60;;;;;;;;;;6239831;28;20076;-65
2022/11/10 08:15:39;;;;;;;43.57;28.17;;;;;;;;;;6240500;28;20077;-65
2022/11/10 08:18:40;;;;;;;38.45;25.73;;;;;;;;;;6241783;28;20475;-64
2022/11/10 08:21:42;;;;;;;40.00;27.33;;;;;;;;;;6240394;28;20090;-64
2022/11/10 08:24:43;;;;;;;38.17;25.42;;;;;;;;;;6241261;28;20046;-65
2022/11/10 08:27:46;;;;;;;36.50;24.85;;;;;;;;;;6239144;28;20087;-66
2022/11/10 08:30:48;;;;;;;39.08;25.85;;;;;;;;;;6241137;28;20053;-67
2022/11/10 08:33:50;;;;;;;38.60;25.05;;;;;;;;;;6239754;28;20103;-67
2022/11/10 08:36:51;;;;;;;36.42;24.88;;;;;;;;;;6241519;28;20127;-66
2022/11/10 08:39:53;;;;;;;39.47;26.10;;;;;;;;;;6240754;28;20116;-61
2022/11/10 08:42:59;;;;;;;36.90;24.73;;;;;;;;;;6240468;28;20367;-61
2022/11/10 08:46:01;;;;;;;35.42;23.33;;;;;;;;;;6236512;28;20045;-61
2022/11/10 08:49:03;;;;;;;30.98;22.35;;;;;;;;;;6238927;28;20256;-61
2022/11/10 08:52:04;;;;;;;32.92;23.55;;;;;;;;;;6237615;28;20130;-61
2022/11/10 08:55:06;;;;;;;37.63;23.52;;;;;;;;;;6233112;28;20113;-61
2022/11/10 08:58:12;;;;;;;34.20;21.98;;;;;;;;;;6234708;28;20048;-61
2022/11/10 09:01:13;;;;;;;28.48;21.30;;;;;;;;;;6235653;28;20054;-62
2022/11/10 09:04:15;;;;;;;34.65;23.02;;;;;;;;;;6237667;28;20107;-62
2022/11/10 09:07:17;;;;;;;33.53;21.27;;;;;;;;;;6232834;28;20048;-61
2022/11/10 09:10:18;;;;;;;32.63;22.63;;;;;;;;;;6233967;28;20336;-61
2022/11/10 09:13:21;;;;;;;33.05;22.50;;;;;;;;;;6236973;28;20123;-60
2022/11/10 09:16:23;;;;;;;34.17;22.65;;;;;;;;;;6240241;28;20049;-65
2022/11/10 09:19:25;;;;;;;33.22;22.23;;;;;;;;;;6225629;28;20045;-66
2022/11/10 09:22:26;;;;;;;34.03;22.17;;;;;;;;;;6234483;28;20242;-65
2022/11/10 09:25:28;;;;;;;33.95;22.70;;;;;;;;;;6240440;28;20715;-64
2022/11/10 09:28:31;;;;;;;32.90;23.15;;;;;;;;;;6245050;28;20882;-66
2022/11/10 09:31:32;;;;;;;33.90;22.70;;;;;;;;;;6240057;28;20053;-65
2022/11/10 09:34:34;;;;;;;32.65;22.67;;;;;;;;;;6242868;28;20058;-65
2022/11/10 09:37:38;;;;;;;33.75;22.80;;;;;;;;;;6237693;28;20044;-66
2022/11/10 09:40:52;;;;;;;32.67;22.45;;;;;;;;;;6243065;28;20091;-65
2022/11/10 09:44:00;;;;;;;33.08;22.13;;;;;;;;;;6236810;28;20113;-65
2022/11/10 09:47:05;;;;;;;30.73;22.60;;;;;;;;;;6240143;28;20151;-68
2022/11/10 09:50:07;;;;;;;33.33;23.17;;;;;;;;;;6239170;28;20061;-69
2022/11/10 09:53:25;;;;;;;36.85;23.85;;;;;;;;;;6241499;28;20053;-67
2022/11/10 09:56:32;;;;;;;35.72;23.85;;;;;;;;;;6241608;28;20232;-63
2022/11/10 09:59:36;;;;;;;35.33;24.15;;;;;;;;;;6238142;28;20056;-66
2022/11/10 10:02:40;;;;;;;33.80;22.55;;;;;;;;;;6236393;28;20337;-66
2022/11/10 10:05:51;;;;;;;35.50;24.42;;;;;;;;;;6238477;28;20049;-65
2022/11/10 10:09:00;;;;;;;37.58;23.95;;;;;;;;;;6237575;28;20288;-66
2022/11/10 10:12:15;;;;;;;33.20;22.10;;;;;;;;;;6242576;28;20321;-66
2022/11/10 10:15:23;;;;;;;36.50;23.65;;;;;;;;;;6247896;28;20151;-67
2022/11/10 10:18:29;;;;;;;32.85;22.50;;;;;;;;;;6246112;28;20046;-67
2022/11/10 10:21:40;;;;;;;34.25;23.33;;;;;;;;;;6246080;28;20110;-65
2022/11/10 10:24:42;;;;;;;36.83;24.70;;;;;;;;;;6245580;28;20096;-66
2022/11/10 10:27:45;;;;;;;37.45;24.38;;;;;;;;;;6244374;28;20124;-66
2022/11/10 10:30:48;;;;;;;36.78;24.20;;;;;;;;;;6248688;28;20053;-65
2022/11/10 10:33:51;;;;;;;36.28;24.90;;;;;;;;;;6241780;28;20123;-68
2022/11/10 10:36:52;;;;;;;33.47;23.45;;;;;;;;;;6241180;28;20069;-66
2022/11/10 10:39:55;;;;;;;35.55;24.02;;;;;;;;;;6248305;28;20049;-66
2022/11/10 10:42:58;;;;;;;40.70;26.55;;;;;;;;;;6245023;28;20061;-64
2022/11/10 10:46:06;;;;;;;34.57;24.57;;;;;;;;;;6247675;28;20092;-65
2022/11/10 10:49:13;;;;;;;35.33;25.05;;;;;;;;;;6246172;28;20780;-66
2022/11/10 10:52:17;;;;;;;34.97;24.08;;;;;;;;;;6248783;28;20344;-66
2022/11/10 10:55:18;;;;;;;33.47;24.27;;;;;;;;;;6245351;28;20077;-65
2022/11/10 10:58:23;;;;;;;33.90;23.30;;;;;;;;;;6250206;28;20058;-67
2022/11/10 11:01:30;;;;;;;35.38;24.73;;;;;;;;;;6243765;28;20245;-67
2022/11/10 11:04:34;;;;;;;36.90;25.30;;;;;;;;;;6249539;28;20050;-67
2022/11/10 11:07:36;;;;;;;40.38;25.92;;;;;;;;;;6243842;28;20061;-65
2022/11/10 11:10:46;;;;;;;37.70;26.08;;;;;;;;;;6240352;28;20057;-64
2022/11/10 11:13:47;;;;;;;38.50;26.48;;;;;;;;;;6239857;28;20121;-65
2022/11/10 11:16:52;;;;;;;34.33;24.52;;;;;;;;;;6243938;28;20138;-62
2022/11/10 11:19:54;;;;;;;37.85;26.23;;;;;;;;;;6238264;28;20053;-64
2022/11/10 11:22:58;;;;;;;34.13;25.17;;;;;;;;;;6243693;28;20391;-64
2022/11/10 11:26:09;;;;;;;38.78;26.60;;;;;;;;;;6245587;28;20068;-66
2022/11/10 11:29:24;;;;;;;41.25;27.55;;;;;;;;;;6251104;28;20112;-66
2022/11/10 11:32:29;;;;;;;;;;;;;;;;;;6246397;28;20061;-65
2022/11/10 11:35:34;;;;;;;42.80;28.02;;;;;;;;;;6250387;28;19925;-66
2022/11/10 11:38:47;;;;;;;37.97;27.00;;;;;;;;;;6243803;28;20053;-66
2022/11/10 11:41:55;;;;;;;40.72;26.60;;;;;;;;;;6245552;28;20257;-67
2022/11/10 11:45:07;;;;;;;38.92;27.17;;;;;;;;;;6241611;28;20049;-66
2022/11/10 11:48:36;;;;;;;38.92;26.67;;;;;;;;;;6247096;28;20064;-67
2022/11/10 11:51:42;;;;;;;39.60;27.55;;;;;;;;;;6241722;28;20053;-66
2022/11/10 11:54:53;;;;;;;38.03;27.00;;;;;;;;;;6239953;28;20095;-66
2022/11/10 11:58:10;;;;;;;37.63;27.52;;;;;;;;;;6244843;28;20112;-65
2022/11/10 12:01:26;;;;;;;38.95;27.20;;;;;;;;;;6245969;28;20069;-66
2022/11/10 12:04:44;;;;;;;35.65;27.30;;;;;;;;;;6247481;28;20123;-64
2022/11/10 12:07:50;;;;;;;38.85;27.52;;;;;;;;;;6248983;28;20057;-66
2022/11/10 12:11:02;;;;;;;40.67;28.85;;;;;;;;;;6240657;28;20400;-66
2022/11/10 12:14:09;;;;;;;35.90;26.27;;;;;;;;;;6245810;28;20049;-63
2022/11/10 12:17:16;;;;;;;36.55;26.67;;;;;;;;;;6244662;28;20049;-67
2022/11/10 12:20:27;;;;;;;40.60;26.75;;;;;;;;;;6243684;28;20096;-66
2022/11/10 12:23:34;;;;;;;36.25;25.08;;;;;;;;;;6245281;28;20049;-66
2022/11/10 12:26:42;;;;;;;38.65;26.35;;;;;;;;;;6249351;28;20137;-66
2022/11/10 12:29:46;;;;;;;37.15;26.40;;;;;;;;;;6242192;28;20061;-66
2022/11/10 12:32:52;;;;;;;35.38;26.20;;;;;;;;;;6243655;28;20139;-66
2022/11/10 12:35:57;;;;;;;36.25;25.67;;;;;;;;;;6246360;28;20192;-66
2022/11/10 12:39:03;;;;;;;35.45;26.02;;;;;;;;;;6249077;28;20057;-68
2022/11/10 12:42:09;;;;;;;36.30;25.67;;;;;;;;;;6246429;28;20045;-67
2022/11/10 12:45:18;;;;;;;34.95;25.30;;;;;;;;;;6240855;28;20345;-68
2022/11/10 12:48:20;;;;;;;35.88;26.52;;;;;;;;;;6245407;28;20053;-66
2022/11/10 12:51:27;;;;;;;36.97;26.33;;;;;;;;;;6244963;28;20102;-70
2022/11/10 12:54:29;;;;;;;35.35;25.95;;;;;;;;;;6244100;28;20050;-72
2022/11/10 12:57:32;;;;;;;38.42;26.38;;;;;;;;;;6241571;28;20120;-69
2022/11/10 13:00:39;;;;;;;34.03;25.25;;;;;;;;;;6243637;28;20052;-69
2022/11/10 13:03:53;;;;;;;34.45;25.02;;;;;;;;;;6241773;28;20054;-71
2022/11/10 13:06:56;;;;;;;;;;;;;;;;;;6244402;28;20318;-69
2022/11/10 13:10:15;;;;;;;33.08;23.85;;;;;;;;;;6239698;28;20185;-68
2022/11/10 13:13:17;;;;;;;29.92;21.60;;;;;;;;;;6240517;28;20061;-70
2022/11/10 13:16:48;;;;;;;28.73;21.20;;;;;;;;;;6242859;28;20045;-70
2022/11/10 13:19:51;;;;;;;26.80;19.63;;;;;;;;;;6244885;28;20233;-74
2022/11/10 13:22:54;;;;;;;25.40;18.52;;;;;;;;;;6240025;28;20050;-72
2022/11/10 13:25:58;;;;;;;21.42;16.02;;;;;;;;;;6247280;28;20057;-66
2022/11/10 13:29:01;;;;;;;23.85;16.13;;;;;;;;;;6245004;28;20282;-70
2022/11/10 13:32:23;;;;;;;21.55;16.45;;;;;;;;;;6244764;28;20073;-69
2022/11/10 13:35:53;;;;;;;19.65;15.68;;;;;;;;;;6241421;28;20061;-68
2022/11/10 13:38:56;;;;;;;20.08;16.80;;;;;;;;;;6241837;28;20105;-68
2022/11/10 13:42:03;;;;;;;22.67;18.00;;;;;;;;;;6241868;28;20054;-67
2022/11/10 13:45:27;;;;;;;24.08;18.98;;;;;;;;;;6238335;28;20356;-66
2022/11/10 13:48:31;;;;;;;;;;;;;;;;;;6248190;28;20100;-66
2022/11/10 13:51:36;;;;;;;;;;;;;;;;;;6242235;28;19934;-66
2022/11/10 13:55:03;;;;;;;31.20;22.33;;;;;;;;;;6246923;28;20000;-66
2022/11/10 13:58:07;;;;;;;31.45;25.38;;;;;;;;;;6239474;28;20050;-65
2022/11/10 14:01:26;;;;;;;37.28;26.25;;;;;;;;;;6245643;28;20045;-67
2022/11/10 14:04:40;;;;;;;38.30;27.52;;;;;;;;;;6240879;28;20136;-66
2022/11/10 14:07:44;;;;;;;38.25;27.70;;;;;;;;;;6243436;28;20065;-65
2022/11/10 14:10:50;;;;;;;36.95;26.13;;;;;;;;;;6244158;28;20455;-66
2022/11/10 14:13:56;;;;;;;34.25;25.50;;;;;;;;;;6243957;28;20247;-66
2022/11/10 14:16:58;;;;;;;36.88;26.55;;;;;;;;;;6241753;28;20057;-66
2022/11/10 14:20:00;;;;;;;40.03;28.00;;;;;;;;;;6248632;28;20045;-66
2022/11/10 14:23:05;;;;;;;38.95;28.33;;;;;;;;;;6247383;28;20049;-66
2022/11/10 14:26:22;;;;;;;36.53;26.83;;;;;;;;;;6245271;28;20057;-66
2022/11/10 14:29:29;;;;;;;36.45;26.85;;;;;;;;;;6242477;28;20077;-70
2022/11/10 14:32:31;;;;;;;35.63;26.30;;;;;;;;;;6246152;28;20073;-69
2022/11/10 14:35:36;;;;;;;37.92;27.73;;;;;;;;;;6246910;28;20268;-68
2022/11/10 14:38:43;;;;;;;37.50;27.65;;;;;;;;;;6247306;28;20065;-69
2022/11/10 14:41:50;;;;;;;38.13;27.10;;;;;;;;;;6247028;28;20056;-68
2022/11/10 14:45:06;;;;;;;38.20;27.95;;;;;;;;;;6242994;28;20080;-68
2022/11/10 14:48:18;;;;;;;38.05;27.52;;;;;;;;;;6243015;28;20049;-69
2022/11/10 14:51:19;;;;;;;39.28;27.13;;;;;;;;;;6244289;28;20049;-68
2022/11/10 14:54:24;;;;;;;38.15;27.92;;;;;;;;;;6246267;28;20054;-67
2022/11/10 14:57:27;;;;;;;39.05;26.20;;;;;;;;;;6241695;28;20323;-69
2022/11/10 15:00:28;;;;;;;38.37;28.00;;;;;;;;;;6243326;28;20045;-69
2022/11/10 15:03:33;;;;;;;39.42;27.83;;;;;;;;;;6246328;28;20873;-69
2022/11/10 15:06:36;;;;;;;39.97;27.33;;;;;;;;;;6244539;28;20046;-69
2022/11/10 15:09:37;;;;;;;39.80;28.08;;;;;;;;;;6243741;28;20053;-70
2022/11/10 15:12:40;;;;;;;39.80;28.00;;;;;;;;;;6241704;28;20049;-68
2022/11/10 15:15:42;;;;;;;39.40;27.80;;;;;;;;;;6236203;28;20076;-67
2022/11/10 15:18:44;;;;;;;47.42;30.15;;;;;;;;;;6242128;28;20044;-67
2022/11/10 15:21:46;;;;;;;39.88;27.95;;;;;;;;;;6243081;28;20049;-69
2022/11/10 15:24:49;;;;;;;39.80;28.90;;;;;;;;;;6241296;28;20049;-70
2022/11/10 15:27:59;;;;;;;39.00;28.60;;;;;;;;;;6244179;28;20056;-70
2022/11/10 15:31:02;;;;;;;42.85;28.73;;;;;;;;;;6244696;28;20260;-67
2022/11/10 15:34:05;;;;;;;125.75;35.60;;;;;;;;;;6247526;28;20057;-65
2022/11/10 15:37:12;;;;;;;77.10;30.80;;;;;;;;;;6246593;28;20095;-68
2022/11/10 15:40:33;;;;;;;39.47;27.05;;;;;;;;;;6244198;28;20127;-68
2022/11/10 15:43:36;;;;;;;41.88;28.30;;;;;;;;;;6240878;28;20261;-70
2022/11/10 15:46:37;;;;;;;41.73;28.53;;;;;;;;;;6241016;28;20069;-65
2022/11/10 15:49:39;;;;;;;40.05;27.67;;;;;;;;;;6239044;28;20283;-66
2022/11/10 15:52:41;;;;;;;39.17;26.80;;;;;;;;;;6240712;28;20320;-68
2022/11/10 15:55:44;;;;;;;40.50;27.60;;;;;;;;;;6243703;28;20057;-71
2022/11/10 15:58:49;;;;;;;43.03;28.27;;;;;;;;;;6242488;28;20328;-69
2022/11/10 16:01:51;;;;;;;41.20;27.52;;;;;;;;;;6239204;28;20053;-70
2022/11/10 16:04:54;;;;;;;42.50;29.88;;;;;;;;;;6239743;28;20103;-69
2022/11/10 16:07:55;;;;;;;45.25;29.45;;;;;;;;;;6245793;28;20115;-70
2022/11/10 16:10:58;;;;;;;43.33;29.05;;;;;;;;;;6242620;28;20091;-70
2022/11/10 16:14:01;;;;;;;45.88;28.50;;;;;;;;;;6239391;28;20061;-70
2022/11/10 16:17:03;;;;;;;45.50;29.30;;;;;;;;;;6242258;28;20054;-70
2022/11/10 16:20:12;;;;;;;43.28;29.10;;;;;;;;;;6241196;28;20367;-71
2022/11/10 16:23:13;;;;;;;44.85;29.85;;;;;;;;;;6243249;28;20048;-71
2022/11/10 16:26:16;;;;;;;108.28;64.43;;;;;;;;;;6245861;28;20049;-70
2022/11/10 16:29:20;;;;;;;145.55;83.07;;;;;;;;;;6241582;28;20080;-67
2022/11/10 16:32:21;;;;;;;204.65;103.25;;;;;;;;;;6241625;28;20060;-68
2022/11/10 16:35:23;;;;;;;130.77;72.03;;;;;;;;;;6241026;28;20064;-69
2022/11/10 16:38:26;;;;;;;89.35;51.40;;;;;;;;;;6236449;28;20060;-68
2022/11/10 16:41:28;;;;;;;57.22;34.05;;;;;;;;;;6236523;28;20108;-68
2022/11/10 16:44:31;;;;;;;46.50;29.77;;;;;;;;;;6239061;28;20088;-69
2022/11/10 16:47:33;;;;;;;40.28;27.45;;;;;;;;;;6237166;28;20053;-68
2022/11/10 16:50:36;;;;;;;41.72;27.50;;;;;;;;;;6236587;28;20038;-68
2022/11/10 16:53:38;;;;;;;41.63;27.10;;;;;;;;;;6238661;28;20084;-70
2022/11/10 16:56:40;;;;;;;38.33;26.23;;;;;;;;;;6236511;28;20053;-68
2022/11/10 16:59:44;;;;;;;37.65;25.15;;;;;;;;;;6238944;28;20141;-70
2022/11/10 17:02:46;;;;;;;;;;;;;;;;;;6243757;28;20081;-69
2022/11/10 17:05:48;;;;;;;39.88;24.48;;;;;;;;;;6239425;28;19992;-69
2022/11/10 17:08:51;;;;;;;39.47;25.45;;;;;;;;;;6239623;28;20065;-68
2022/11/10 17:11:52;;;;;;;44.00;27.02;;;;;;;;;;6237854;28;20072;-68
2022/11/10 17:14:55;;;;;;;41.42;27.83;;;;;;;;;;6237405;28;20268;-67
2022/11/10 17:17:57;;;;;;;42.40;27.23;;;;;;;;;;6238706;28;20088;-71
2022/11/10 17:20:59;;;;;;;39.25;27.23;;;;;;;;;;6236527;28;20045;-69
2022/11/10 17:24:02;;;;;;;41.10;27.17;;;;;;;;;;6237871;28;20263;-73
2022/11/10 17:27:04;;;;;;;43.20;28.45;;;;;;;;;;6238557;28;20064;-72
2022/11/10 17:30:09;;;;;;;48.97;28.08;;;;;;;;;;6236939;28;20060;-68
2022/11/10 17:33:11;;;;;;;41.38;27.55;;;;;;;;;;6242355;28;20053;-67
2022/11/10 17:36:17;;;;;;;42.13;27.88;;;;;;;;;;6236777;28;20710;-68
2022/11/10 17:39:19;;;;;;;43.28;27.77;;;;;;;;;;6236648;28;20233;-67
2022/11/10 17:42:21;;;;;;;40.78;27.10;;;;;;;;;;6238702;28;20064;-67
2022/11/10 17:45:25;;;;;;;42.13;27.45;;;;;;;;;;6239784;28;20075;-68
2022/11/10 17:48:27;;;;;;;42.78;27.25;;;;;;;;;;6237401;28;20096;-63
2022/11/10 17:51:32;;;;;;;44.67;28.38;;;;;;;;;;6240316;28;20288;-66
2022/11/10 17:54:33;;;;;;;44.22;28.77;;;;;;;;;;6239233;28;20052;-67
2022/11/10 17:57:35;;;;;;;42.47;26.92;;;;;;;;;;6239700;28;20042;-68
2022/11/10 18:00:38;;;;;;;42.97;28.45;;;;;;;;;;6236394;28;20044;-68
2022/11/10 18:03:40;;;;;;;43.23;28.67;;;;;;;;;;6236496;28;20116;-68
2022/11/10 18:06:42;;;;;;;40.00;27.58;;;;;;;;;;6243140;28;20502;-69
2022/11/10 18:09:44;;;;;;;46.03;28.80;;;;;;;;;;6236304;28;20218;-69